Horsholm, Denmark
Current Conditions -  °F | °C
As of 7:50 AM on Saturday 01 Nov 2014 (Local Time) from EKCH Reporting Station
Haze Haze  
Wind Chill: 54°   Ceiling: 300
Heat Index: 54°   Visibility: 0.87mi
Dew Point: 54°   Wind: 9mph
Humidity: 100%   Direction: 170°S
Pressure: 30.12"   Gusts: NA
Location:  55.88°N, 12.5°E
Report Text: EKCH 010650Z 17008KT 1400 R22L/P1500N R04L/P1500N R12/P1500NBR FEW002 OVC003 12/12 Q1020 TEMPO 2000
Loading
Personal Weather Stations






























Interactive Weather Map
Tropical Storm Tracking
New forecast layout! Learn more

10-Day Weather Forecast

Advertisements
Track Severe Weather on mobile